Terminal Aerodrome Forecast
Issued by NWS

Home | Current Version | Previous Version | Text Only | Print | Product List | Glossary On
Versions: 1 2 3 4 5 6 7 8 9 10 11 12 13 14 15 16 17 18 19 20 21 22 23 24 25 26 27 28
000
FTUS44 KLIX 210524
TAFMSY
TAF
KMSY 210524Z 2106/2212 04006KT P6SM SKC
     FM211000 07006KT P6SM SKC
     FM211800 10007KT P6SM FEW170 FEW250
     FM220300 11007KT P6SM FEW026 SCT050
     FM220500 12008KT P6SM SCT023 BKN050=

USA.gov is the U.S. government's official web portal to all federal, state and local government web resources and services.